Time;durP1;ratioP1;P1;durP2;ratioP2;P2;SDS_P1;SDS_P2;PMS_P1;PMS_P2;Temp;Humidity;BMP_temperature;BMP_pressure;BME280_temperature;BME280_humidity;BME280_pressure;Samples;Min_cycle;Max_cycle;Signal;HPM_P1;HPM_P2
2022/06/05 00:00:12;;;;;;;25.58;23.70;;;13.80;99.90;;;;;;5013924;28;20046;-76
2022/06/05 00:02:41;;;;;;;25.48;23.67;;;13.60;99.90;;;;;;5022376;28;20320;-76
2022/06/05 00:05:24;;;;;;;25.08;23.27;;;13.50;99.90;;;;;;5024333;28;20103;-74
2022/06/05 00:07:56;;;;;;;25.70;23.60;;;13.40;99.90;;;;;;5025607;28;20147;-73
2022/06/05 00:10:31;;;;;;;25.45;23.60;;;13.30;99.90;;;;;;5025435;28;20081;-74
2022/06/05 00:13:24;;;;;;;25.27;23.48;;;13.30;99.90;;;;;;5023630;28;20111;-75
2022/06/05 00:15:51;;;;;;;27.35;25.20;;;13.20;99.90;;;;;;5003884;28;20038;-74
2022/06/05 00:18:18;;;;;;;29.92;27.38;;;13.20;99.90;;;;;;5002261;28;20801;-75
2022/06/05 00:20:45;;;;;;;31.98;29.17;;;13.10;99.90;;;;;;5003691;28;20446;-73
2022/06/05 00:23:12;;;;;;;30.17;27.67;;;12.90;99.90;;;;;;5011960;28;20120;-74
2022/06/05 00:25:59;;;;;;;27.67;25.50;;;12.90;99.90;;;;;;5008309;28;20045;-76
2022/06/05 00:28:52;;;;;;;29.00;26.55;;;13.00;99.90;;;;;;4998927;28;20049;-73
2022/06/05 00:31:24;;;;;;;26.58;24.48;;;13.00;99.90;;;;;;5012883;28;20068;-76
2022/06/05 00:33:51;;;;;;;26.58;24.42;;;13.00;99.90;;;;;;5004760;28;20081;-75
2022/06/05 00:36:46;;;;;;;28.33;25.73;;;12.80;99.90;;;;;;5003678;28;20058;-75
2022/06/05 00:39:17;;;;;;;25.20;23.10;;;12.90;99.90;;;;;;5004108;28;20090;-76
2022/06/05 00:41:47;;;;;;;23.27;21.48;;;12.90;99.90;;;;;;5003100;28;20050;-76
2022/06/05 00:44:20;;;;;;;23.23;21.35;;;12.90;99.90;;;;;;5004729;28;20046;-75
2022/06/05 00:46:50;;;;;;;25.38;23.17;;;12.90;99.90;;;;;;5005477;28;20049;-74
2022/06/05 00:49:19;;;;;;;28.40;26.17;;;12.90;99.90;;;;;;5005107;28;20050;-75
2022/06/05 00:51:47;;;;;;;30.38;27.88;;;12.80;99.90;;;;;;5008110;28;20703;-75
2022/06/05 00:54:13;;;;;;;31.10;28.52;;;12.70;99.90;;;;;;5014352;28;20069;-75
2022/06/05 00:56:40;;;;;;;32.85;29.95;;;12.60;99.90;;;;;;5008175;28;20147;-76
2022/06/05 00:59:10;;;;;;;29.77;27.33;;;12.60;99.90;;;;;;5016490;28;20442;-75
2022/06/05 01:01:37;;;;;;;31.98;29.38;;;12.60;99.90;;;;;;4982828;28;20100;-75
2022/06/05 01:04:05;;;;;;;31.08;28.50;;;12.50;99.90;;;;;;4983260;28;20053;-74
2022/06/05 01:06:31;;;;;;;31.67;29.10;;;12.40;99.90;;;;;;4998324;28;20046;-74
2022/06/05 01:08:58;;;;;;;33.30;30.30;;;12.40;99.90;;;;;;5003472;28;20376;-75
2022/06/05 01:11:39;;;;;;;31.20;28.50;;;12.50;99.90;;;;;;5004308;28;20092;-75
2022/06/05 01:14:30;;;;;;;30.58;27.98;;;12.50;99.90;;;;;;5004613;28;20077;-75
2022/06/05 01:17:16;;;;;;;29.08;26.77;;;12.50;99.90;;;;;;5003531;28;20099;-75
2022/06/05 01:19:59;;;;;;;28.35;25.98;;;12.50;99.90;;;;;;5004196;28;20053;-75
2022/06/05 01:22:50;;;;;;;24.55;22.50;;;12.50;99.90;;;;;;5009755;28;20045;-76
2022/06/05 01:25:41;;;;;;;23.88;21.98;;;12.70;99.90;;;;;;5004717;28;20072;-73
2022/06/05 01:28:24;;;;;;;22.90;20.95;;;12.70;99.90;;;;;;5009427;28;20184;-75
2022/06/05 01:31:10;;;;;;;23.85;21.98;;;12.90;99.90;;;;;;5007888;28;20818;-75
2022/06/05 01:33:44;;;;;;;23.77;22.08;;;13.10;99.90;;;;;;5002206;28;20081;-75
2022/06/05 01:36:26;;;;;;;23.88;22.13;;;13.30;99.90;;;;;;5002856;28;20115;-74
2022/06/05 01:39:09;;;;;;;23.77;22.08;;;13.40;99.90;;;;;;4997722;28;20046;-74
2022/06/05 01:41:47;;;;;;;22.70;21.08;;;13.50;99.90;;;;;;4998139;28;20111;-74
2022/06/05 01:44:39;;;;;;;22.55;20.70;;;13.50;99.90;;;;;;5001681;28;20065;-75
2022/06/05 01:47:13;;;;;;;22.63;21.02;;;13.50;99.90;;;;;;5002479;28;20076;-75
2022/06/05 01:50:06;;;;;;;23.40;21.70;;;13.40;99.90;;;;;;5002609;28;20325;-74
2022/06/05 01:52:47;;;;;;;23.20;21.27;;;13.50;99.90;;;;;;5010867;28;20046;-75
2022/06/05 01:55:22;;;;;;;22.83;21.33;;;13.40;99.90;;;;;;5019160;28;20060;-75
2022/06/05 01:57:54;;;;;;;23.40;21.88;;;13.50;99.90;;;;;;5015251;28;20045;-74
2022/06/05 02:00:22;;;;;;;24.48;22.48;;;13.60;99.90;;;;;;5016042;28;20041;-75
2022/06/05 02:03:09;;;;;;;24.25;22.17;;;13.50;99.90;;;;;;5015679;28;20052;-75
2022/06/05 02:05:48;;;;;;;23.45;21.85;;;13.50;99.90;;;;;;5004186;28;20041;-75
2022/06/05 02:08:25;;;;;;;25.48;23.65;;;13.50;99.90;;;;;;5003609;28;20129;-75
2022/06/05 02:11:19;;;;;;;28.15;25.92;;;13.10;99.90;;;;;;5007610;28;20045;-76
2022/06/05 02:13:47;;;;;;;27.50;25.30;;;13.00;99.90;;;;;;5001870;28;20045;-75
2022/06/05 02:16:14;;;;;;;25.92;24.02;;;12.80;99.90;;;;;;5006218;28;20742;-73
2022/06/05 02:18:41;;;;;;;26.98;24.90;;;12.80;99.90;;;;;;5001934;28;20050;-75
2022/06/05 02:21:08;;;;;;;28.30;26.10;;;12.70;99.90;;;;;;5001742;28;20112;-74
2022/06/05 02:23:38;;;;;;;26.38;24.15;;;12.70;99.90;;;;;;5012928;28;20128;-75
2022/06/05 02:26:07;;;;;;;26.83;24.73;;;12.60;99.90;;;;;;5003073;28;20061;-75
2022/06/05 02:28:36;;;;;;;26.00;23.77;;;12.60;99.90;;;;;;5004318;28;20060;-75
2022/06/05 02:31:11;;;;;;;26.40;24.17;;;12.60;99.90;;;;;;5005807;28;20131;-76
2022/06/05 02:33:43;;;;;;;25.15;22.90;;;12.70;99.90;;;;;;5002078;28;20065;-76
2022/06/05 02:36:21;;;;;;;23.33;21.58;;;12.90;99.90;;;;;;5003149;28;20103;-74
2022/06/05 02:38:59;;;;;;;24.33;22.77;;;13.50;99.90;;;;;;4998927;28;20105;-75
2022/06/05 02:42:11;;;;;;;24.88;22.98;;;14.00;99.90;;;;;;5002218;28;20475;-74
2022/06/05 02:45:13;;;;;;;24.15;22.55;;;14.00;99.90;;;;;;4975054;28;20066;-75
2022/06/05 02:47:55;;;;;;;24.00;22.30;;;14.20;99.90;;;;;;4988045;28;20159;-75
2022/06/05 02:50:57;;;;;;;22.63;20.98;;;14.50;99.90;;;;;;4988998;28;20049;-75
2022/06/05 02:53:25;;;;;;;22.05;20.73;;;14.60;99.90;;;;;;4966462;28;20113;-76
2022/06/05 02:55:52;;;;;;;22.67;20.88;;;14.70;99.90;;;;;;5006987;28;20616;-76
2022/06/05 02:58:22;;;;;;;22.13;20.83;;;14.80;99.90;;;;;;5014860;28;20096;-76
2022/06/05 03:03:34;;;;;;;22.95;21.55;;;15.00;99.90;;;;;;5004948;28;20046;-76
2022/06/05 03:06:02;;;;;;;22.83;21.50;;;15.00;99.90;;;;;;5006919;28;20050;-74
2022/06/05 03:08:29;;;;;;;24.02;22.48;;;15.00;99.90;;;;;;4989366;28;20064;-75
2022/06/05 03:10:55;;;;;;;23.35;21.50;;;15.00;99.90;;;;;;5010095;28;20053;-75
2022/06/05 03:13:22;;;;;;;22.27;21.08;;;15.10;99.90;;;;;;5009468;28;20053;-75
2022/06/05 03:15:49;;;;;;;22.55;21.25;;;15.10;99.90;;;;;;5006421;28;20104;-75
2022/06/05 03:18:16;;;;;;;23.50;21.65;;;15.10;99.90;;;;;;5006887;28;20057;-75
2022/06/05 03:20:43;;;;;;;22.15;20.67;;;15.10;99.90;;;;;;5006954;28;20559;-75
2022/06/05 03:23:11;;;;;;;22.55;21.02;;;15.10;99.90;;;;;;5018948;28;20564;-75
2022/06/05 03:25:40;;;;;;;22.08;20.67;;;15.10;99.90;;;;;;5008102;28;20096;-74
2022/06/05 03:28:08;;;;;;;22.05;20.55;;;15.20;99.90;;;;;;5010498;28;20073;-75
2022/06/05 03:30:40;;;;;;;24.35;22.92;;;15.20;99.90;;;;;;5017126;28;20049;-75
2022/06/05 03:33:07;;;;;;;24.70;22.90;;;15.20;99.90;;;;;;5025183;28;20152;-75
2022/06/05 03:35:39;;;;;;;23.95;22.48;;;15.20;99.90;;;;;;5024973;28;20357;-76
2022/06/05 03:38:06;;;;;;;23.65;22.25;;;15.30;99.90;;;;;;5025622;28;20045;-75
2022/06/05 03:40:33;;;;;;;22.75;21.23;;;15.30;99.90;;;;;;5005279;28;20045;-75
2022/06/05 03:43:01;;;;;;;23.10;21.80;;;15.20;99.90;;;;;;5013279;28;20041;-75
2022/06/05 03:45:28;;;;;;;22.50;21.20;;;15.20;99.90;;;;;;5004794;28;20046;-74
2022/06/05 03:47:54;;;;;;;23.27;21.80;;;15.30;99.90;;;;;;5006064;28;20050;-75
2022/06/05 03:50:21;;;;;;;22.25;21.05;;;15.30;99.90;;;;;;5003262;28;20054;-74
2022/06/05 03:52:48;;;;;;;22.75;21.25;;;15.40;99.90;;;;;;5022835;28;20077;-74
2022/06/05 03:55:19;;;;;;;22.38;21.08;;;15.40;99.90;;;;;;5007622;28;20052;-75
2022/06/05 03:57:46;;;;;;;22.02;20.73;;;15.40;99.90;;;;;;5010869;28;20293;-75
2022/06/05 04:00:14;;;;;;;21.40;20.20;;;15.50;99.90;;;;;;5013471;28;20041;-74
2022/06/05 04:02:42;;;;;;;20.75;19.23;;;15.50;99.90;;;;;;5007281;28;20055;-75
2022/06/05 04:05:13;;;;;;;21.33;20.02;;;15.50;99.90;;;;;;5024415;28;20107;-74
2022/06/05 04:07:40;;;;;;;22.33;20.83;;;15.50;99.90;;;;;;5024812;28;20135;-75
2022/06/05 04:10:10;;;;;;;22.73;21.33;;;15.50;99.90;;;;;;5021490;28;20518;-75
2022/06/05 04:12:37;;;;;;;22.13;20.83;;;15.40;99.90;;;;;;5004321;28;20060;-75
2022/06/05 04:15:05;;;;;;;22.88;21.52;;;15.50;99.90;;;;;;5002814;28;20042;-74
2022/06/05 04:17:32;;;;;;;22.13;20.52;;;15.50;99.90;;;;;;5004398;28;20057;-75
2022/06/05 04:19:58;;;;;;;22.80;21.10;;;15.50;99.90;;;;;;5004489;28;20236;-75
2022/06/05 04:22:25;;;;;;;22.48;21.08;;;15.50;99.90;;;;;;5004090;28;20104;-75
2022/06/05 04:24:55;;;;;;;23.65;22.08;;;15.50;99.90;;;;;;5007866;28;20513;-75
2022/06/05 04:27:21;;;;;;;23.55;22.17;;;15.60;99.90;;;;;;4995274;28;20054;-76
2022/06/05 04:29:48;;;;;;;23.75;22.25;;;15.60;99.90;;;;;;5011658;28;20241;-75
2022/06/05 04:32:15;;;;;;;23.23;22.02;;;15.70;99.90;;;;;;5018961;28;20042;-75
2022/06/05 04:34:42;;;;;;;23.73;22.15;;;15.90;99.90;;;;;;5004308;28;20056;-75
2022/06/05 04:37:08;;;;;;;23.80;22.17;;;16.10;99.90;;;;;;5002991;28;20050;-75
2022/06/05 04:39:35;;;;;;;23.92;22.27;;;16.10;99.90;;;;;;5004598;28;20096;-75
2022/06/05 04:42:02;;;;;;;23.30;22.00;;;16.20;99.90;;;;;;5015957;28;20049;-74
2022/06/05 04:44:29;;;;;;;22.73;21.27;;;16.20;99.90;;;;;;5019290;28;20069;-75
2022/06/05 04:46:56;;;;;;;24.45;22.88;;;16.30;99.90;;;;;;5024078;28;20403;-75
2022/06/05 04:49:23;;;;;;;23.15;21.95;;;16.20;99.90;;;;;;5017537;28;20046;-74
2022/06/05 04:51:50;;;;;;;23.55;22.25;;;16.20;99.90;;;;;;4988188;28;20096;-75
2022/06/05 04:54:17;;;;;;;23.48;21.98;;;16.10;99.90;;;;;;5022465;28;20108;-75
2022/06/05 04:56:44;;;;;;;24.02;22.52;;;16.10;99.90;;;;;;5035948;28;20057;-74
2022/06/05 04:59:12;;;;;;;23.77;22.38;;;16.10;99.90;;;;;;5006183;28;20058;-75
2022/06/05 05:01:39;;;;;;;25.17;23.58;;;16.00;99.90;;;;;;5021883;28;20115;-75
2022/06/05 05:04:10;;;;;;;24.63;23.23;;;16.10;99.90;;;;;;5022442;28;20054;-75
2022/06/05 05:06:39;;;;;;;24.02;22.63;;;16.10;99.90;;;;;;5016842;28;20447;-75
2022/06/05 05:09:06;;;;;;;24.95;23.55;;;16.10;99.90;;;;;;5003238;28;20046;-75
2022/06/05 05:11:34;;;;;;;24.17;22.63;;;16.20;99.90;;;;;;5009164;28;20138;-75
2022/06/05 05:14:02;;;;;;;23.73;22.02;;;16.20;99.90;;;;;;5006484;28;20082;-75
2022/06/05 05:16:30;;;;;;;23.40;21.92;;;16.30;99.90;;;;;;5002034;28;20046;-75
2022/06/05 05:19:04;;;;;;;24.27;22.65;;;16.30;99.90;;;;;;5001302;28;20064;-75
2022/06/05 05:21:31;;;;;;;24.10;22.17;;;16.40;99.90;;;;;;5003049;28;20672;-76
2022/06/05 05:23:58;;;;;;;23.50;22.02;;;16.50;99.90;;;;;;5011696;28;20049;-76
2022/06/05 05:26:27;;;;;;;24.20;22.80;;;16.50;99.90;;;;;;5000983;28;20038;-74
2022/06/05 05:28:55;;;;;;;24.00;22.50;;;16.60;99.90;;;;;;5001729;28;20046;-76
2022/06/05 05:31:28;;;;;;;24.45;22.80;;;16.60;99.90;;;;;;5019502;28;20422;-76
2022/06/05 05:33:56;;;;;;;23.65;22.20;;;16.70;99.90;;;;;;5022631;28;20053;-75
2022/06/05 05:36:24;;;;;;;24.60;23.02;;;17.00;99.90;;;;;;5023060;28;20421;-75
2022/06/05 05:44:42;;;;;;;24.65;23.25;;;17.00;99.90;;;;;;5016601;28;20049;-76
2022/06/05 05:47:18;;;;;;;24.13;22.65;;;17.00;99.90;;;;;;5021363;28;20049;-74
2022/06/05 05:49:45;;;;;;;24.40;22.80;;;17.10;99.90;;;;;;5005549;28;20050;-76
2022/06/05 05:52:12;;;;;;;24.45;22.90;;;17.10;99.90;;;;;;5001946;28;20094;-76
2022/06/05 05:54:39;;;;;;;24.30;22.67;;;17.10;99.90;;;;;;4996278;28;20517;-76
2022/06/05 05:57:08;;;;;;;24.55;23.05;;;17.10;99.90;;;;;;5014801;28;20453;-74
2022/06/05 05:59:35;;;;;;;24.80;23.20;;;17.20;99.90;;;;;;5007314;28;20044;-76
2022/06/05 06:02:03;;;;;;;25.65;23.88;;;17.20;99.90;;;;;;5000274;28;20073;-74
2022/06/05 06:04:30;;;;;;;23.60;22.15;;;17.30;99.90;;;;;;5002762;28;20469;-75
2022/06/05 06:06:57;;;;;;;24.08;22.65;;;17.20;99.90;;;;;;5003062;28;20586;-75
2022/06/05 06:09:23;;;;;;;25.40;23.90;;;17.20;99.90;;;;;;5002059;28;20062;-76
2022/06/05 06:11:50;;;;;;;25.42;24.00;;;17.20;99.90;;;;;;5006744;28;20046;-74
2022/06/05 06:14:17;;;;;;;25.80;23.98;;;17.40;99.90;;;;;;5009606;28;20435;-76
2022/06/05 06:16:44;;;;;;;25.90;24.42;;;17.40;99.90;;;;;;5001273;28;20192;-76
2022/06/05 06:19:11;;;;;;;25.40;23.60;;;17.40;99.90;;;;;;5002026;28;20459;-75
2022/06/05 06:21:38;;;;;;;26.23;24.65;;;17.30;99.90;;;;;;5003621;28;20360;-76
2022/06/05 06:24:12;;;;;;;25.45;23.85;;;17.40;99.90;;;;;;5008479;28;20064;-74
2022/06/05 06:26:40;;;;;;;27.23;25.50;;;17.50;99.90;;;;;;5000841;28;20519;-76
2022/06/05 06:29:08;;;;;;;27.42;25.92;;;17.50;99.90;;;;;;5009799;28;20057;-76
2022/06/05 06:31:38;;;;;;;27.85;25.95;;;17.60;99.90;;;;;;5019580;28;20049;-76
2022/06/05 06:34:05;;;;;;;27.38;25.58;;;17.80;99.90;;;;;;5013771;28;20308;-76
2022/06/05 06:36:32;;;;;;;25.50;23.80;;;18.00;99.90;;;;;;5002416;28;20100;-76
2022/06/05 06:39:16;;;;;;;27.70;26.02;;;17.90;99.90;;;;;;5006741;23;20069;-75
2022/06/05 06:41:43;;;;;;;29.00;27.13;;;17.80;99.90;;;;;;4989383;28;20593;-78
2022/06/05 06:44:10;;;;;;;27.35;25.85;;;17.90;99.90;;;;;;4995730;28;20092;-79
2022/06/05 06:46:36;;;;;;;27.63;25.73;;;17.80;99.90;;;;;;5002186;28;20333;-77
2022/06/05 06:49:04;;;;;;;29.10;27.20;;;17.80;99.90;;;;;;5001169;28;20796;-78
2022/06/05 06:51:32;;;;;;;30.42;28.20;;;18.00;99.90;;;;;;4997137;28;20089;-78
2022/06/05 06:53:58;;;;;;;27.65;25.95;;;18.30;99.90;;;;;;4992804;28;20041;-77
2022/06/05 06:56:29;;;;;;;28.75;26.95;;;18.40;99.90;;;;;;4982696;28;20073;-79
2022/06/05 06:58:58;;;;;;;28.02;26.30;;;18.60;99.90;;;;;;4985994;28;20046;-79
2022/06/05 07:01:25;;;;;;;29.63;27.77;;;18.60;99.90;;;;;;5000409;28;20050;-77
2022/06/05 07:03:52;;;;;;;29.90;27.92;;;18.60;99.90;;;;;;5001330;28;20050;-78
2022/06/05 07:06:20;;;;;;;29.05;27.10;;;18.80;99.90;;;;;;5002795;28;20058;-78
2022/06/05 07:08:49;;;;;;;31.27;28.98;;;18.80;99.90;;;;;;4996312;28;20042;-77
2022/06/05 07:11:17;;;;;;;30.33;28.27;;;18.60;99.90;;;;;;4966515;28;20062;-78
2022/06/05 07:13:48;;;;;;;29.95;27.92;;;18.70;99.90;;;;;;4988091;28;20057;-79
2022/06/05 07:16:16;;;;;;;29.88;28.00;;;18.70;99.90;;;;;;4981326;28;20129;-78
2022/06/05 07:18:43;;;;;;;29.45;27.50;;;18.50;99.90;;;;;;4964982;28;20130;-78
2022/06/05 07:21:17;;;;;;;30.85;28.75;;;18.60;99.90;;;;;;4983049;28;20054;-79
2022/06/05 07:23:44;;;;;;;28.83;27.02;;;18.50;99.90;;;;;;4991094;28;20042;-78
2022/06/05 07:26:14;;;;;;;30.98;28.70;;;18.60;99.90;;;;;;4982641;28;20040;-78
2022/06/05 07:28:41;;;;;;;30.92;28.92;;;18.50;99.90;;;;;;4991338;28;20285;-77
2022/06/05 07:31:09;;;;;;;31.65;29.63;;;18.50;99.90;;;;;;5000192;28;20046;-78
2022/06/05 07:33:37;;;;;;;31.77;29.58;;;18.60;99.90;;;;;;5002128;28;20064;-78
2022/06/05 07:36:07;;;;;;;30.92;29.02;;;18.60;99.90;;;;;;5006010;28;20038;-78
2022/06/05 07:38:35;;;;;;;31.17;29.27;;;18.60;99.90;;;;;;5003370;28;20178;-79
2022/06/05 07:41:03;;;;;;;29.48;27.73;;;18.50;99.90;;;;;;4973334;28;20076;-78
2022/06/05 07:43:29;;;;;;;30.27;28.45;;;18.50;99.90;;;;;;4970020;28;20423;-77
2022/06/05 07:45:59;;;;;;;31.25;29.23;;;18.60;99.90;;;;;;4964985;28;20039;-78
2022/06/05 07:48:26;;;;;;;30.00;28.17;;;18.60;99.90;;;;;;4981465;28;20070;-78
2022/06/05 07:56:29;;;;;;;30.05;28.25;;;19.10;99.90;;;;;;4949076;28;20519;-77
2022/06/05 07:58:56;;;;;;;31.42;29.38;;;19.20;99.90;;;;;;4964002;28;20023;-76
2022/06/05 08:01:42;;;;;;;30.60;28.60;;;19.00;99.90;;;;;;4984362;28;20066;-76
2022/06/05 08:04:09;;;;;;;32.20;30.10;;;19.00;99.90;;;;;;4969233;28;20051;-76
2022/06/05 08:06:36;;;;;;;31.30;29.20;;;19.20;99.90;;;;;;4984237;28;20114;-76
2022/06/05 08:09:04;;;;;;;31.73;29.63;;;19.20;99.90;;;;;;4976069;28;20047;-77
2022/06/05 08:11:32;;;;;;;31.67;29.58;;;19.20;99.90;;;;;;4960123;28;20073;-77
2022/06/05 08:14:00;;;;;;;32.72;30.48;;;19.00;99.90;;;;;;4960094;28;20050;-78
2022/06/05 08:16:27;;;;;;;30.80;28.92;;;18.80;99.90;;;;;;4965323;28;20081;-77
2022/06/05 08:18:54;;;;;;;31.70;29.70;;;18.80;99.90;;;;;;4965029;28;20836;-76
2022/06/05 08:21:22;;;;;;;30.20;28.10;;;18.80;99.90;;;;;;4965588;28;20066;-77
2022/06/05 08:23:50;;;;;;;30.45;28.55;;;19.10;99.90;;;;;;4966911;28;20039;-77
2022/06/05 08:26:17;;;;;;;31.00;28.92;;;19.30;99.90;;;;;;4948439;28;20043;-76
2022/06/05 08:28:44;;;;;;;31.65;29.33;;;19.20;99.90;;;;;;4957336;28;20051;-77
2022/06/05 08:31:11;;;;;;;33.08;30.95;;;19.00;99.90;;;;;;4965083;28;20067;-75
2022/06/05 08:33:38;;;;;;;32.45;30.30;;;19.10;99.90;;;;;;4966577;28;20106;-77
2022/06/05 08:36:05;;;;;;;31.83;29.88;;;19.30;99.90;;;;;;4958101;28;20070;-77
2022/06/05 08:41:27;;;;;;;31.90;30.00;;;19.90;99.90;;;;;;4953456;28;20046;-77
2022/06/05 08:44:31;;;;;;;31.63;29.33;;;19.90;99.90;;;;;;4945696;28;20562;-77
2022/06/05 08:47:08;;;;;;;30.23;28.23;;;20.40;99.90;;;;;;4978388;28;20110;-76
2022/06/05 08:49:45;;;;;;;31.83;29.63;;;20.70;99.90;;;;;;4949122;28;20051;-77
2022/06/05 08:52:27;;;;;;;30.80;29.00;;;20.80;99.90;;;;;;4984440;28;20066;-77
2022/06/05 08:55:13;;;;;;;31.85;29.83;;;20.60;99.90;;;;;;4949484;28;20094;-77
2022/06/05 08:57:56;;;;;;;30.45;28.65;;;20.40;99.90;;;;;;4953842;28;20105;-77
2022/06/05 09:00:44;;;;;;;30.33;28.48;;;20.60;99.90;;;;;;4977034;28;20051;-77
2022/06/05 09:03:21;;;;;;;30.10;28.30;;;21.10;99.90;;;;;;4967898;28;20059;-78
2022/06/05 09:05:57;;;;;;;30.23;28.42;;;21.00;99.90;;;;;;4966117;28;20049;-76
2022/06/05 09:08:34;;;;;;;29.58;27.85;;;21.30;99.90;;;;;;4965230;28;20062;-75
2022/06/05 09:11:09;;;;;;;29.40;27.70;;;21.50;99.90;;;;;;4960165;28;20031;-76
2022/06/05 09:13:54;;;;;;;30.45;28.75;;;21.60;99.90;;;;;;4950633;28;20054;-76
2022/06/05 09:16:28;;;;;;;29.08;27.48;;;21.50;99.90;;;;;;4975984;28;20047;-75
2022/06/05 09:18:55;;;;;;;32.70;30.58;;;21.60;99.90;;;;;;4960666;28;20102;-75
2022/06/05 09:21:54;;;;;;;32.10;29.90;;;21.70;99.90;;;;;;4961470;28;20066;-76
2022/06/05 09:24:36;;;;;;;30.35;28.33;;;21.70;99.90;;;;;;4950976;28;20078;-75
2022/06/05 09:27:32;;;;;;;31.35;29.25;;;21.70;99.90;;;;;;4949853;28;20533;-78
2022/06/05 09:30:09;;;;;;;29.33;27.52;;;21.50;99.90;;;;;;4957938;28;20105;-76
2022/06/05 09:33:14;;;;;;;28.77;26.95;;;21.50;99.90;;;;;;4968282;28;20066;-75
2022/06/05 09:35:51;;;;;;;29.98;28.05;;;21.40;99.90;;;;;;4979305;28;20437;-76
2022/06/05 09:38:18;;;;;;;30.05;28.17;;;21.40;99.90;;;;;;4963311;28;20059;-76
2022/06/05 09:40:56;;;;;;;30.33;28.15;;;21.20;99.90;;;;;;4946769;28;20043;-76
2022/06/05 09:43:37;;;;;;;29.10;27.10;;;21.30;99.90;;;;;;4957810;28;20120;-75
2022/06/05 09:46:12;;;;;;;30.80;29.02;;;21.30;99.90;;;;;;4964391;28;20778;-77
2022/06/05 09:48:54;;;;;;;32.17;29.97;;;20.90;99.90;;;;;;4979856;28;20535;-75
2022/06/05 09:51:21;;;;;;;33.17;31.17;;;20.50;99.90;;;;;;4962919;28;20536;-76
2022/06/05 09:54:06;;;;;;;32.90;30.73;;;20.40;99.90;;;;;;4954424;28;20106;-76
2022/06/05 09:59:38;;;;;;;33.25;31.25;;;20.40;99.90;;;;;;4952372;28;20059;-77
2022/06/05 10:02:07;;;;;;;31.80;29.85;;;20.70;99.90;;;;;;4944426;28;20050;-76
2022/06/05 10:04:36;;;;;;;31.25;29.45;;;20.40;99.90;;;;;;4975018;28;20167;-75
2022/06/05 10:07:31;;;;;;;31.90;29.63;;;20.30;99.90;;;;;;4958583;28;20051;-76
2022/06/05 10:10:06;;;;;;;31.73;29.38;;;20.10;99.90;;;;;;4959304;28;20047;-76
2022/06/05 10:13:04;;;;;;;31.77;29.58;;;20.20;99.90;;;;;;4976428;28;20134;-76
2022/06/05 10:15:55;;;;;;;30.65;28.85;;;20.40;99.90;;;;;;4927545;28;20402;-76
2022/06/05 10:18:33;;;;;;;31.95;29.85;;;20.30;99.90;;;;;;4945140;28;20190;-76
2022/06/05 10:21:06;;;;;;;30.75;28.95;;;20.20;99.90;;;;;;4944912;28;20447;-75
2022/06/05 10:23:37;;;;;;;32.10;30.00;;;20.30;99.90;;;;;;4984448;28;20113;-76
2022/06/05 10:26:31;;;;;;;32.45;30.60;;;20.50;99.90;;;;;;4945808;28;20510;-75
2022/06/05 10:29:46;;;;;;;33.17;31.27;;;20.50;99.90;;;;;;4950374;28;20138;-75
2022/06/05 10:32:40;;;;;;;34.47;32.42;;;20.50;99.90;;;;;;4940547;28;20531;-77
2022/06/05 10:35:13;;;;;;;34.55;32.45;;;20.20;99.90;;;;;;4940751;28;20709;-76
2022/06/05 10:37:44;;;;;;;34.22;32.05;;;20.20;99.90;;;;;;4973810;28;20529;-76
2022/06/05 10:40:20;;;;;;;32.90;30.63;;;20.00;99.90;;;;;;4946809;28;20581;-76
2022/06/05 10:42:54;;;;;;;31.63;29.40;;;19.90;99.90;;;;;;4948051;28;20047;-76
2022/06/05 10:45:21;;;;;;;32.33;30.23;;;19.90;99.90;;;;;;4943333;28;20147;-76
2022/06/05 10:47:56;;;;;;;33.42;31.52;;;19.90;99.90;;;;;;4945585;29;21080;-75
2022/06/05 10:50:29;;;;;;;32.90;30.73;;;19.80;99.90;;;;;;4944077;28;20043;-78
2022/06/05 10:53:28;;;;;;;32.80;30.05;;;19.60;99.90;;;;;;4934151;28;20133;-76
2022/06/05 10:56:01;;;;;;;32.22;30.20;;;19.50;99.90;;;;;;4946261;28;20059;-76
2022/06/05 10:58:39;;;;;;;31.15;29.23;;;19.50;99.90;;;;;;4982454;28;20477;-75
2022/06/05 11:01:12;;;;;;;33.05;30.75;;;19.50;99.90;;;;;;4977395;28;20529;-76
2022/06/05 11:03:55;;;;;;;35.33;33.08;;;19.60;99.90;;;;;;4963917;28;20679;-76
2022/06/05 11:06:40;;;;;;;37.15;34.80;;;19.70;99.90;;;;;;4963001;28;20043;-77
2022/06/05 11:09:27;;;;;;;38.72;36.42;;;19.60;99.90;;;;;;4965841;28;20481;-76
2022/06/05 11:15:05;;;;;;;41.13;38.30;;;19.30;99.90;;;;;;4939940;29;20043;-76
2022/06/05 11:17:51;;;;;;;41.83;39.28;;;19.30;99.90;;;;;;4959543;28;20159;-77
2022/06/05 11:20:19;;;;;;;;;;;19.30;99.90;;;;;;4928734;28;20059;-77
2022/06/05 11:23:20;;;;;;;40.63;38.13;;;19.20;99.90;;;;;;4949954;28;19926;-76
2022/06/05 11:26:13;;;;;;;42.67;39.88;;;19.20;99.90;;;;;;4951210;28;20066;-77
2022/06/05 11:29:11;;;;;;;40.50;37.75;;;19.40;99.90;;;;;;4958492;28;20055;-76
2022/06/05 11:31:43;;;;;;;40.47;38.08;;;19.40;99.90;;;;;;4966003;28;20050;-76
2022/06/05 11:34:31;;;;;;;38.75;36.45;;;19.30;99.90;;;;;;4965699;28;20059;-77
2022/06/05 11:37:23;;;;;;;38.30;35.72;;;19.30;99.90;;;;;;4967303;28;20489;-75
2022/06/05 11:40:01;;;;;;;37.55;34.95;;;19.30;99.90;;;;;;4953143;28;20106;-78
2022/06/05 11:42:37;;;;;;;37.78;35.47;;;19.40;99.90;;;;;;4967634;28;20071;-77
2022/06/05 11:45:04;;;;;;;35.58;33.20;;;19.50;99.90;;;;;;4966241;28;20506;-77
2022/06/05 11:47:34;;;;;;;36.25;33.67;;;19.60;99.90;;;;;;4982106;28;20105;-75
2022/06/05 11:50:04;;;;;;;35.80;33.53;;;19.50;99.90;;;;;;4974955;28;20058;-78
2022/06/05 11:52:41;;;;;;;34.17;32.17;;;19.40;99.90;;;;;;4969023;28;20043;-78
2022/06/05 11:55:10;;;;;;;34.65;32.63;;;19.50;99.90;;;;;;4948882;28;20058;-76
2022/06/05 11:57:49;;;;;;;36.47;34.22;;;19.60;99.90;;;;;;4952906;28;20513;-75
2022/06/05 12:00:35;;;;;;;37.13;34.65;;;19.60;99.90;;;;;;4961774;28;20511;-76
2022/06/05 12:03:13;;;;;;;35.50;33.10;;;19.70;99.90;;;;;;4968773;28;20109;-78
2022/06/05 12:05:51;;;;;;;37.03;34.60;;;19.60;99.90;;;;;;4965662;28;20525;-77
2022/06/05 12:08:23;;;;;;;38.10;35.47;;;19.70;99.90;;;;;;4966863;28;20181;-77
2022/06/05 12:10:58;;;;;;;35.60;33.38;;;19.70;99.90;;;;;;4959158;28;20034;-77
2022/06/05 12:13:40;;;;;;;37.08;34.50;;;19.50;99.90;;;;;;4956441;28;20058;-75
2022/06/05 12:16:13;;;;;;;37.00;34.22;;;19.20;99.90;;;;;;4965488;28;20054;-76
2022/06/05 12:19:03;;;;;;;35.50;32.97;;;19.00;99.90;;;;;;4969545;28;20054;-78
2022/06/05 12:21:55;;;;;;;34.53;32.28;;;19.00;99.90;;;;;;4961358;28;20137;-77
2022/06/05 12:24:25;;;;;;;33.90;31.60;;;19.00;99.90;;;;;;4953336;28;20409;-76
2022/06/05 12:27:04;;;;;;;36.47;33.85;;;19.10;99.90;;;;;;4948381;28;20046;-77
2022/06/05 12:29:42;;;;;;;34.95;32.75;;;19.00;99.90;;;;;;4958586;28;20620;-77
2022/06/05 12:32:24;;;;;;;34.92;32.47;;;19.00;99.90;;;;;;4965727;28;20532;-76
2022/06/05 12:35:02;;;;;;;33.70;31.50;;;19.00;99.90;;;;;;4974009;28;20047;-77
2022/06/05 12:37:45;;;;;;;34.45;32.15;;;19.10;99.90;;;;;;4967628;28;20518;-75
2022/06/05 12:40:21;;;;;;;32.58;30.35;;;19.00;99.90;;;;;;4951529;28;20051;-76
2022/06/05 12:43:02;;;;;;;32.30;29.80;;;18.90;99.90;;;;;;4953950;28;20102;-77
2022/06/05 12:45:31;;;;;;;31.35;28.48;;;19.00;99.90;;;;;;4946680;28;20039;-76
2022/06/05 12:48:03;;;;;;;31.60;29.23;;;18.90;99.90;;;;;;4945361;28;20043;-76
2022/06/05 12:50:30;;;;;;;32.85;30.48;;;18.80;99.90;;;;;;4944523;28;20043;-76
2022/06/05 12:53:04;;;;;;;33.42;31.15;;;18.80;99.90;;;;;;4958000;28;20074;-74
2022/06/05 12:55:54;;;;;;;30.83;28.73;;;18.70;99.90;;;;;;4950267;28;20051;-76
2022/06/05 12:58:27;;;;;;;34.10;31.63;;;18.80;99.90;;;;;;4952363;28;20051;-74
2022/06/05 13:01:00;;;;;;;32.75;30.00;;;18.70;99.90;;;;;;4946727;28;20188;-75
2022/06/05 13:03:41;;;;;;;33.97;31.23;;;18.60;99.90;;;;;;4947376;28;20051;-76
2022/06/05 13:06:25;;;;;;;33.97;31.48;;;18.60;99.90;;;;;;4944132;28;20611;-74
2022/06/05 13:08:56;;;;;;;32.40;30.00;;;18.60;99.90;;;;;;4947394;28;20043;-73
2022/06/05 13:11:54;;;;;;;33.60;31.10;;;18.60;99.90;;;;;;4951937;28;20050;-74
2022/06/05 13:14:37;;;;;;;31.00;28.60;;;18.60;99.90;;;;;;4960025;28;20054;-77
2022/06/05 13:17:10;;;;;;;33.72;31.17;;;18.60;99.90;;;;;;4965369;28;20580;-74
2022/06/05 13:19:57;;;;;;;32.17;29.73;;;18.50;99.90;;;;;;4966675;28;20109;-76
2022/06/05 13:22:50;;;;;;;29.48;27.33;;;18.50;99.90;;;;;;4960448;28;20096;-76
2022/06/05 13:25:41;;;;;;;28.52;26.25;;;18.50;99.90;;;;;;4947813;28;20102;-73